.
WxDataArchive / Data Records for 2011-11-20
2011-11-19 November 2011 2011-11-21

Data Records for Sunday, 20 November 2011

Time	Temp	Chill	HIndex	Humid	Dewpt	 Wind 	HiWind	WindDir	Rain 	Barom 
-----	----	-----	------	-----	-----	------	------	-------	-----	----- 
00:00	57.0	57.0	57.0	67	46.2	2	5	248	0.00	29.873 
00:05	56.9	56.9	56.9	67	46.1	2	11	248	0.00	29.873 
00:10	56.7	56.7	56.7	68	46.3	2	6	248	0.00	29.873 
00:15	56.7	56.7	56.7	68	46.3	2	9	248	0.00	29.880 
00:20	56.7	56.7	56.7	68	46.3	4	9	248	0.00	29.880 
00:25	56.9	56.9	56.9	68	46.4	3	11	248	0.00	29.880 
00:30	57.0	57.0	57.0	68	46.5	2	6	248	0.00	29.892 
00:35	57.0	57.0	57.0	69	46.9	2	6	248	0.00	29.892 
00:40	57.0	57.0	57.0	69	46.9	3	10	248	0.00	29.892 
00:45	57.0	57.0	57.0	69	46.9	2	6	248	0.00	29.892 
00:50	57.0	57.0	57.0	69	46.9	3	6	248	0.00	29.892 
00:55	57.0	57.0	57.0	69	46.9	3	6	248	0.00	29.892 
01:00	57.2	57.2	57.2	69	47.1	3	8	248	0.00	29.894 
01:05	57.2	57.2	57.2	69	47.1	2	10	248	0.00	29.894 
01:10	57.3	57.3	57.3	69	47.2	3	8	248	0.00	29.894 
01:15	57.5	57.5	57.5	69	47.4	2	7	248	0.00	29.897 
01:20	57.5	57.5	57.5	70	47.8	3	7	248	0.00	29.897 
01:25	57.8	57.8	57.8	69	47.7	3	12	248	0.00	29.897 
01:30	57.8	57.8	57.8	70	48.1	3	10	248	0.00	29.904 
01:35	58.0	58.0	58.0	70	48.3	3	6	248	0.00	29.904 
01:40	58.1	58.1	58.1	70	48.4	2	7	248	0.00	29.904 
01:45	58.4	58.4	58.4	70	48.7	3	10	248	0.00	29.908 
01:50	58.7	58.7	58.7	70	48.9	4	12	248	0.00	29.908 
01:55	59.0	59.0	59.0	69	48.8	4	11	248	0.00	29.908 
02:00	59.3	59.3	59.3	69	49.1	4	11	248	0.00	29.909 
02:05	59.5	59.5	59.5	69	49.3	4	12	248	0.00	29.909 
02:10	59.8	59.8	59.8	68	49.2	4	12	270	0.00	29.909 
02:15	59.8	59.8	59.8	68	49.2	5	18	248	0.00	29.912 
02:20	59.8	59.8	59.8	68	49.2	4	11	248	0.00	29.912 
02:25	59.8	59.8	59.8	69	49.6	3	10	248	0.00	29.912 
02:30	59.8	59.8	59.8	69	49.6	4	12	248	0.00	29.922 
02:35	59.8	59.8	59.8	69	49.6	4	14	248	0.00	29.922 
02:40	59.8	59.8	59.8	69	49.6	4	11	248	0.00	29.922 
02:45	59.8	59.8	59.8	69	49.6	3	11	270	0.00	29.928 
02:50	59.6	59.6	59.6	70	49.8	4	13	248	0.00	29.928 
02:55	59.6	59.6	59.6	70	49.8	3	7	248	0.00	29.928 
03:00	59.6	59.6	59.6	71	50.2	3	7	248	0.00	29.927 
03:05	59.5	59.5	59.5	71	50.1	3	8	248	0.00	29.927 
03:10	59.5	59.5	59.5	72	50.5	4	9	248	0.00	29.927 
03:15	59.5	59.5	59.5	72	50.5	4	10	248	0.00	29.934 
03:20	59.5	59.5	59.5	72	50.5	4	11	248	0.00	29.934 
03:25	59.5	59.5	59.5	72	50.5	4	10	248	0.00	29.934 
03:30	59.3	59.3	59.3	73	50.6	3	11	248	0.00	29.936 
03:35	59.3	59.3	59.3	73	50.6	4	11	248	0.00	29.936 
03:40	59.3	59.3	59.3	73	50.6	3	9	225	0.00	29.936 
03:45	59.2	59.2	59.2	73	50.5	3	9	248	0.00	29.940 
03:50	59.2	59.2	59.2	73	50.5	2	6	270	0.00	29.940 
03:55	59.2	59.2	59.2	74	50.9	2	7	225	0.00	29.940 
04:00	59.2	59.2	59.2	74	50.9	2	6	248	0.00	29.946 
04:05	59.0	59.0	59.0	74	50.7	2	5	248	0.00	29.946 
04:10	59.0	59.0	59.0	74	50.7	2	5	248	0.00	29.946 
04:15	59.0	59.0	59.0	74	50.7	3	6	248	0.00	29.950 
04:20	59.2	59.2	59.2	75	51.3	2	5	248	0.00	29.950 
04:25	59.2	59.2	59.2	75	51.3	2	6	248	0.00	29.950 
04:30	59.2	59.2	59.2	75	51.3	3	7	248	0.00	29.955 
04:35	59.3	59.3	59.3	75	51.4	2	6	248	0.00	29.955 
04:40	59.3	59.3	59.3	76	51.7	2	6	248	0.00	29.955 
04:45	59.3	59.3	59.3	76	51.7	2	6	248	0.00	29.959 
04:50	59.5	59.5	59.5	76	51.9	2	5	248	0.00	29.959 
04:55	59.5	59.5	59.5	76	51.9	3	5	248	0.00	29.959 
05:00	59.5	59.5	59.5	77	52.3	2	7	248	0.00	29.967 
05:05	59.5	59.5	59.5	77	52.3	2	4	248	0.00	29.967 
05:10	59.5	59.5	59.5	77	52.3	2	7	248	0.00	29.967 
05:15	59.5	59.5	59.5	77	52.3	2	6	270	0.00	29.971 
05:20	59.3	59.3	59.3	77	52.1	3	9	270	0.00	29.971 
05:25	59.3	59.3	59.3	77	52.1	3	7	270	0.00	29.971 
05:30	59.2	59.2	59.2	77	52.0	3	5	270	0.00	29.980 
05:35	59.0	59.0	59.0	77	51.8	3	6	248	0.00	29.980 
05:40	59.0	59.0	59.0	77	51.8	2	6	248	0.00	29.980 
05:45	58.9	58.9	58.9	77	51.7	2	5	248	0.00	29.985 
05:50	58.7	58.7	58.7	77	51.5	2	6	270	0.00	29.985 
05:55	58.7	58.7	58.7	76	51.2	3	12	248	0.00	29.985 
06:00	58.7	58.7	58.7	76	51.2	3	9	248	0.00	29.992 
06:05	58.7	58.7	58.7	76	51.2	4	7	270	0.00	29.992 
06:10	58.6	58.6	58.6	76	51.1	2	6	248	0.00	29.992 
06:15	58.4	58.4	58.4	76	50.9	3	6	270	0.00	29.999 
06:20	58.3	58.3	58.3	76	50.8	3	6	270	0.00	29.999 
06:25	58.3	58.3	58.3	76	50.8	3	7	270	0.00	29.999 
06:30	58.0	58.0	58.0	76	50.5	3	6	270	0.00	30.012 
06:35	57.6	57.6	57.6	75	49.7	3	6	270	0.00	30.012 
06:40	57.2	57.2	57.2	74	49.0	4	11	292	0.00	30.012 
06:45	56.7	56.7	56.7	73	48.1	4	7	292	0.00	30.016 
06:50	56.5	56.5	56.5	69	46.5	4	9	270	0.00	30.016 
06:55	56.3	56.3	56.3	69	46.3	3	7	270	0.00	30.016 
07:00	56.2	56.2	56.2	69	46.2	3	6	270	0.00	30.032 
07:05	55.9	55.9	55.9	69	45.9	4	6	270	0.00	30.032 
07:10	55.6	55.6	55.6	70	46.0	2	5	270	0.00	30.032 
07:15	55.4	55.4	55.4	71	46.2	2	5	270	0.00	30.037 
07:20	55.1	55.1	55.1	71	45.9	3	6	270	0.00	30.037 
07:25	54.8	54.8	54.8	71	45.6	3	5	270	0.00	30.037 
07:30	54.5	54.5	54.5	72	45.7	3	6	270	0.00	30.048 
07:35	54.1	54.1	54.1	71	44.9	3	6	292	0.00	30.048 
07:40	53.3	53.3	53.3	72	44.5	3	6	315	0.00	30.048 
07:45	52.5	52.5	52.5	73	44.1	3	7	270	0.00	30.065 
07:50	51.7	51.7	51.7	73	43.3	3	6	270	0.00	30.065 
07:55	51.1	51.1	51.1	74	43.1	1	4	292	0.00	30.065 
08:00	50.8	50.8	50.8	75	43.2	0	4	338	0.00	30.081 
08:05	50.5	50.5	50.5	76	43.2	2	4	292	0.00	30.081 
08:10	50.4	50.4	50.4	76	43.1	1	4	270	0.00	30.081 
08:15	50.2	50.2	50.2	77	43.3	2	6	315	0.00	30.097 
08:20	49.9	49.9	49.9	77	43.0	1	4	292	0.00	30.097 
08:25	49.8	49.8	49.8	77	42.9	1	4	338	0.00	30.097 
08:30	49.5	49.5	49.5	77	42.6	2	6	292	0.00	30.104 
08:35	49.2	49.2	49.2	77	42.3	2	6	338	0.00	30.104 
08:40	49.1	49.1	49.1	78	42.5	1	4	292	0.00	30.104 
08:45	48.9	48.9	48.9	78	42.3	2	5	292	0.00	30.117 
08:50	48.6	48.6	48.6	77	41.7	1	5	270	0.00	30.117 
08:55	48.5	48.5	48.5	77	41.6	1	4	338	0.00	30.117 
09:00	48.3	48.3	48.3	77	41.4	2	5	292	0.00	30.130 
09:05	48.3	48.3	48.3	77	41.4	1	3	270	0.00	30.130 
09:10	48.2	48.2	48.2	77	41.3	1	3	292	0.00	30.130 
09:15	48.2	48.2	48.2	77	41.3	0	2	292	0.00	30.134 
09:20	48.2	48.2	48.2	77	41.3	1	3	292	0.00	30.134 
09:25	48.2	48.2	48.2	77	41.3	0	3	315	0.00	30.134 
09:30	48.2	48.2	48.2	76	41.0	1	3	315	0.00	30.145 
09:35	47.9	47.9	47.9	75	40.4	1	3	338	0.00	30.145 
09:40	47.9	47.9	47.9	74	40.0	1	4	315	0.00	30.145 
09:45	47.9	47.9	47.9	73	39.7	1	3	315	0.00	30.155 
09:50	47.9	47.9	47.9	73	39.7	0	2	292	0.00	30.155 
09:55	47.9	47.9	47.9	73	39.7	0	3	292	0.00	30.155 
10:00	47.7	47.7	47.7	73	39.5	1	3	315	0.00	30.161 
10:05	47.6	47.6	47.6	72	39.0	1	4	315	0.00	30.161 
10:10	47.6	47.6	47.6	72	39.0	0	3	292	0.00	30.161 
10:15	47.4	47.4	47.4	71	38.5	1	3	292	0.00	30.162 
10:20	47.4	47.4	47.4	71	38.5	0	1	292	0.00	30.162 
10:25	47.4	47.4	47.4	71	38.5	0	3	292	0.00	30.162 
10:30	47.6	47.6	47.6	71	38.7	1	3	292	0.00	30.166 
10:35	47.6	47.6	47.6	70	38.3	1	3	292	0.00	30.166 
10:40	47.6	47.6	47.6	71	38.7	0	3	292	0.00	30.166 
10:45	47.6	47.6	47.6	71	38.7	0	2	292	0.00	30.173 
10:50	47.7	47.7	47.7	71	38.8	0	2	292	0.00	30.173 
10:55	47.7	47.7	47.7	71	38.8	1	3	292	0.00	30.173 
11:00	47.6	47.6	47.6	70	38.3	1	3	292	0.00	30.176 
11:05	47.4	47.4	47.4	70	38.1	1	3	292	0.00	30.176 
11:10	47.4	47.4	47.4	70	38.1	1	3	338	0.00	30.176 
11:15	47.4	47.4	47.4	69	37.7	1	4	270	0.00	30.185 
11:20	47.4	47.4	47.4	69	37.7	1	3	270	0.00	30.185 
11:25	47.4	47.4	47.4	68	37.4	1	3	270	0.00	30.185 
11:30	47.4	47.4	47.4	68	37.4	0	3	292	0.00	30.165 
11:35	47.4	47.4	47.4	69	37.7	1	3	292	0.00	30.165 
11:40	47.4	47.4	47.4	68	37.4	0	3	292	0.00	30.165 
11:45	47.4	47.4	47.4	68	37.4	0	2	292	0.00	30.174 
11:50	47.4	47.4	47.4	69	37.7	0	2	292	0.00	30.174 
11:55	47.6	47.6	47.6	68	37.6	1	2	292	0.00	30.174 
12:00	47.6	47.6	47.6	68	37.6	1	3	292	0.00	30.177 
12:05	47.6	47.6	47.6	66	36.8	0	1	315	0.00	30.177 
12:10	47.4	47.4	47.4	65	36.2	0	2	225	0.00	30.177 
12:15	47.4	47.4	47.4	66	36.6	0	2	225	0.00	30.163 
12:20	47.3	47.3	47.3	65	36.1	0	1	225	0.00	30.163 
12:25	47.4	47.4	47.4	65	36.2	0	1	225	0.00	30.163 
12:30	47.3	47.3	47.3	65	36.1	0	2	338	0.00	30.164 
12:35	47.4	47.4	47.4	65	36.2	0	2	338	0.00	30.164 
12:40	47.4	47.4	47.4	65	36.2	0	2	338	0.00	30.164 
12:45	47.4	47.4	47.4	65	36.2	0	2	338	0.00	30.166 
12:50	47.3	47.3	47.3	65	36.1	0	2	0	0.00	30.166 
12:55	47.4	47.4	47.4	65	36.2	0	2	0	0.00	30.166 
13:00	47.6	47.6	47.6	66	36.8	0	1	0	0.00	30.162 
13:05	47.7	47.7	47.7	66	36.9	0	1	0	0.00	30.162 
13:10	47.7	47.7	47.7	66	36.9	0	2	0	0.00	30.162 
13:15	47.7	47.7	47.7	65	36.5	0	2	0	0.00	30.159 
13:20	47.7	47.7	47.7	65	36.5	0	3	338	0.00	30.159 
13:25	47.7	47.7	47.7	65	36.5	0	1	338	0.00	30.159 
13:30	47.7	47.7	47.7	66	36.9	0	1	338	0.00	30.165 
13:35	47.7	47.7	47.7	65	36.5	0	1	338	0.00	30.165 
13:40	47.6	47.6	47.6	65	36.4	0	2	338	0.00	30.165 
13:45	47.4	47.4	47.4	65	36.2	0	1	338	0.00	30.162 
13:50	47.4	47.4	47.4	66	36.6	0	0	---	0.00	30.162 
13:55	47.4	47.4	47.4	66	36.6	0	2	338	0.00	30.162 
14:00	47.4	47.4	47.4	66	36.6	0	2	338	0.00	30.174 
14:05	47.6	47.6	47.6	65	36.4	1	2	338	0.00	30.174 
14:10	47.6	47.6	47.6	65	36.4	0	2	338	0.00	30.174 
14:15	47.6	47.6	47.6	66	36.8	0	2	338	0.00	30.182 
14:20	47.6	47.6	47.6	65	36.4	1	3	338	0.00	30.182 
14:25	47.6	47.6	47.6	65	36.4	1	3	338	0.00	30.182 
14:30	47.3	47.3	47.3	65	36.1	0	2	338	0.00	30.176 
14:35	47.3	47.3	47.3	66	36.5	0	2	338	0.00	30.176 
14:40	47.1	47.1	47.1	66	36.3	0	2	338	0.00	30.176 
14:45	47.1	47.1	47.1	67	36.7	0	1	338	0.00	30.164 
14:50	47.3	47.3	47.3	67	36.9	0	1	338	0.00	30.164 
14:55	47.3	47.3	47.3	67	36.9	0	2	338	0.00	30.164 
15:00	47.1	47.1	47.1	67	36.7	0	3	338	0.00	30.161 
15:05	47.1	47.1	47.1	67	36.7	0	2	338	0.00	30.161 
15:10	47.1	47.1	47.1	68	37.1	0	2	338	0.00	30.161 
15:15	47.1	47.1	47.1	67	36.7	0	2	338	0.00	30.172 
15:20	47.1	47.1	47.1	67	36.7	0	2	338	0.00	30.172 
15:25	47.1	47.1	47.1	67	36.7	0	1	338	0.00	30.172 
15:30	47.1	47.1	47.1	68	37.1	0	2	338	0.00	30.173 
15:35	47.1	47.1	47.1	67	36.7	0	2	338	0.00	30.173 
15:40	47.1	47.1	47.1	67	36.7	0	1	338	0.00	30.173 
15:45	47.1	47.1	47.1	67	36.7	1	3	338	0.00	30.176 
15:50	47.1	47.1	47.1	67	36.7	0	2	338	0.00	30.176 
15:55	47.1	47.1	47.1	67	36.7	0	1	338	0.00	30.176 
16:00	47.1	47.1	47.1	66	36.3	0	3	338	0.00	30.187 
16:05	47.0	47.0	47.0	66	36.2	0	2	338	0.00	30.187 
16:10	47.0	47.0	47.0	66	36.2	0	3	338	0.00	30.187 
16:15	47.0	47.0	47.0	67	36.6	0	1	338	0.00	30.189 
16:20	47.0	47.0	47.0	66	36.2	0	3	315	0.00	30.189 
16:25	46.8	46.8	46.8	67	36.4	0	2	315	0.00	30.189 
16:30	46.8	46.8	46.8	67	36.4	0	2	315	0.00	30.184 
16:35	46.7	46.7	46.7	67	36.3	0	1	315	0.00	30.184 
16:40	46.7	46.7	46.7	67	36.3	0	2	315	0.00	30.184 
16:45	46.5	46.5	46.5	68	36.5	0	0	---	0.00	30.188 
16:50	46.5	46.5	46.5	68	36.5	0	0	---	0.00	30.188 
16:55	46.4	46.4	46.4	68	36.4	0	0	---	0.00	30.188 
17:00	46.2	46.2	46.2	69	36.6	0	1	315	0.00	30.200 
17:05	46.1	46.1	46.1	69	36.5	0	0	---	0.00	30.200 
17:10	46.0	46.0	46.0	68	36.0	0	0	---	0.00	30.200 
17:15	46.0	46.0	46.0	68	36.0	0	2	315	0.00	30.208 
17:20	45.8	45.8	45.8	69	36.2	0	0	---	0.00	30.208 
17:25	45.8	45.8	45.8	69	36.2	0	1	315	0.00	30.208 
17:30	45.7	45.7	45.7	68	35.8	0	1	315	0.00	30.209 
17:35	45.7	45.7	45.7	68	35.8	0	0	---	0.00	30.209 
17:40	45.7	45.7	45.7	68	35.8	0	1	315	0.00	30.209 
17:45	45.7	45.7	45.7	68	35.8	0	2	315	0.00	30.223 
17:50	45.5	45.5	45.5	68	35.6	0	1	315	0.00	30.223 
17:55	45.5	45.5	45.5	67	35.2	0	2	315	0.00	30.223 
18:00	45.4	45.4	45.4	67	35.1	0	1	315	0.00	30.215 
18:05	45.4	45.4	45.4	67	35.1	0	0	---	0.00	30.215 
18:10	45.4	45.4	45.4	67	35.1	0	1	315	0.00	30.215 
18:15	45.2	45.2	45.2	68	35.3	0	0	---	0.00	30.226 
18:20	45.2	45.2	45.2	67	34.9	0	1	315	0.00	30.226 
18:25	45.1	45.1	45.1	67	34.8	0	0	---	0.00	30.226 
18:30	45.1	45.1	45.1	67	34.8	0	0	---	0.00	30.243 
18:35	45.1	45.1	45.1	68	35.2	0	0	---	0.00	30.243 
18:40	44.9	44.9	44.9	68	35.0	0	0	---	0.00	30.243 
18:45	44.8	44.8	44.8	68	34.9	0	0	---	0.00	30.241 
18:50	44.8	44.8	44.8	69	35.3	0	1	315	0.00	30.241 
18:55	44.6	44.6	44.6	69	35.1	0	0	---	0.00	30.241 
19:00	44.5	44.5	44.5	70	35.3	0	1	315	0.00	30.246 
19:05	44.5	44.5	44.5	70	35.3	0	0	---	0.00	30.246 
19:10	44.3	44.3	44.3	70	35.1	0	1	315	0.00	30.246 
19:15	44.3	44.3	44.3	70	35.1	0	2	315	0.00	30.264 
19:20	44.2	44.2	44.2	70	35.0	0	0	---	0.00	30.264 
19:25	44.2	44.2	44.2	70	35.0	0	1	315	0.00	30.264 
19:30	44.1	44.1	44.1	70	35.0	0	2	22	0.00	30.266 
19:35	44.1	44.1	44.1	70	35.0	0	0	---	0.00	30.266 
19:40	44.1	44.1	44.1	70	35.0	0	2	22	0.00	30.266 
19:45	44.1	44.1	44.1	70	35.0	0	1	22	0.00	30.264 
19:50	43.9	43.9	43.9	70	34.8	0	1	22	0.00	30.264 
19:55	43.9	43.9	43.9	69	34.4	0	0	---	0.00	30.264 
20:00	43.9	43.9	43.9	70	34.8	0	1	22	0.00	30.265 
20:05	43.9	43.9	43.9	70	34.8	0	1	22	0.00	30.265 
20:10	43.9	43.9	43.9	69	34.4	0	1	22	0.00	30.265 
20:15	43.8	43.8	43.8	70	34.7	0	0	---	0.00	30.266 
20:20	43.8	43.8	43.8	70	34.7	0	2	22	0.00	30.266 
20:25	43.8	43.8	43.8	70	34.7	0	0	---	0.00	30.266 
20:30	43.6	43.6	43.6	70	34.5	0	0	---	0.00	30.268 
20:35	43.6	43.6	43.6	70	34.5	0	1	22	0.00	30.268 
20:40	43.5	43.5	43.5	71	34.7	0	0	---	0.00	30.268 
20:45	43.5	43.5	43.5	70	34.4	0	1	22	0.00	30.274 
20:50	43.5	43.5	43.5	70	34.4	0	0	---	0.00	30.274 
20:55	43.3	43.3	43.3	71	34.5	0	0	---	0.00	30.274 
21:00	43.3	43.3	43.3	71	34.5	0	0	---	0.00	30.276 
21:05	43.3	43.3	43.3	71	34.5	0	2	22	0.00	30.276 
21:10	43.2	43.2	43.2	72	34.8	0	0	---	0.00	30.276 
21:15	43.2	43.2	43.2	72	34.8	0	0	---	0.00	30.268 
21:20	43.1	43.1	43.1	72	34.7	0	0	---	0.00	30.268 
21:25	43.1	43.1	43.1	72	34.7	0	3	112	0.00	30.268 
21:30	43.1	43.1	43.1	72	34.7	0	2	112	0.00	30.267 
21:35	43.1	43.1	43.1	73	35.0	0	1	112	0.00	30.267 
21:40	42.9	42.9	42.9	72	34.5	0	2	112	0.00	30.267 
21:45	42.9	42.9	42.9	72	34.5	1	3	112	0.00	30.265 
21:50	43.1	43.1	43.1	71	34.3	1	4	135	0.00	30.265 
21:55	43.1	43.1	43.1	70	34.0	1	3	45	0.00	30.265 
22:00	43.1	43.1	43.1	70	34.0	1	4	45	0.00	30.256 
22:05	43.1	43.1	43.1	70	34.0	1	4	22	0.00	30.256 
22:10	43.1	43.1	43.1	70	34.0	1	3	90	0.00	30.256 
22:15	42.9	42.9	42.9	71	34.2	1	6	90	0.00	30.247 
22:20	42.9	42.9	42.9	71	34.2	2	6	90	0.00	30.247 
22:25	42.8	42.8	42.8	71	34.1	1	7	90	0.00	30.247 
22:30	42.8	42.8	42.8	71	34.1	2	7	112	0.00	30.242 
22:35	42.8	42.8	42.8	72	34.4	1	4	112	0.00	30.242 
22:40	42.6	42.6	42.6	72	34.2	1	5	68	0.00	30.242 
22:45	42.6	42.6	42.6	72	34.2	1	5	90	0.00	30.243 
22:50	42.5	42.5	42.5	73	34.5	1	7	90	0.00	30.243 
22:55	42.5	42.5	42.5	73	34.5	2	6	112	0.00	30.243 
23:00	42.5	42.5	42.5	73	34.5	2	9	112	0.00	30.247 
23:05	42.3	42.3	42.3	73	34.3	1	6	90	0.00	30.247 
23:10	42.3	42.3	42.3	73	34.3	3	16	90	0.00	30.247 
23:15	42.2	42.2	42.2	74	34.5	2	8	112	0.00	30.247 
23:20	42.2	42.2	42.2	74	34.5	2	10	90	0.00	30.247 
23:25	42.1	42.1	42.1	74	34.4	2	7	112	0.00	30.247 
23:30	41.9	41.9	41.9	75	34.6	2	5	90	0.00	30.252 
23:35	41.8	41.8	41.8	75	34.5	1	4	90	0.00	30.252 
23:40	41.6	41.6	41.6	75	34.3	1	5	90	0.00	30.252 
23:45	41.6	41.6	41.6	75	34.3	2	7	112	0.00	30.269 
23:50	41.6	41.6	41.6	75	34.3	1	5	68	0.00	30.269 
23:55	41.5	41.5	41.5	75	34.2	1	4	112	0.00	30.269 

CoCoRaHS
IN-AL-39
A2 Web Hosting
Creative Commons License
GoDaddy
search engine by freefind advanced

loaded 2018-11-14 00:25:27 • last modified 2010-11-18 10:43:29
Privacy PolicyDisclaimer
• wx.awcolley.com is powered by PmWiki v.2002016 •
• all content (unless otherwise noted) © 2018 A W Colley